Time;durP1;ratioP1;P1;durP2;ratioP2;P2;SDS_P1;SDS_P2;PMS_P1;PMS_P2;Temp;Humidity;BMP_temperature;BMP_pressure;BME280_temperature;BME280_humidity;BME280_pressure;Samples;Min_cycle;Max_cycle;Signal;HPM_P1;HPM_P2
2022/03/31 00:00:24;;;;;;;29.55;18.58;;;;;;;;;;6319113;22;20123;-82
2022/03/31 00:02:51;;;;;;;28.25;20.13;;;;;;;;;;6320058;22;19995;-82
2022/03/31 00:05:17;;;;;;;30.83;19.85;;;;;;;;;;6318669;22;20003;-82
2022/03/31 00:07:50;;;;;;;30.10;19.25;;;;;;;;;;6318485;22;19999;-82
2022/03/31 00:10:20;;;;;;;29.42;18.88;;;;;;;;;;6320173;22;19999;-82
2022/03/31 00:12:48;;;;;;;26.70;18.23;;;;;;;;;;6319860;22;20502;-82
2022/03/31 00:15:15;;;;;;;35.70;21.05;;;;;;;;;;6318803;22;20234;-82
2022/03/31 00:17:41;;;;;;;29.90;19.27;;;;;;;;;;6319681;22;20000;-82
2022/03/31 00:20:07;;;;;;;29.30;19.60;;;;;;;;;;6319658;22;20073;-82
2022/03/31 00:22:34;;;;;;;30.25;20.05;;;;;;;;;;6318528;22;20000;-82
2022/03/31 00:25:00;;;;;;;28.27;18.85;;;;;;;;;;6319084;22;20007;-82
2022/03/31 00:27:26;;;;;;;29.30;18.73;;;;;;;;;;6320149;22;19999;-82
2022/03/31 00:29:52;;;;;;;28.77;18.88;;;;;;;;;;6319511;22;20006;-82
2022/03/31 00:32:18;;;;;;;29.08;19.05;;;;;;;;;;6319478;22;20000;-82
2022/03/31 00:34:45;;;;;;;31.52;19.23;;;;;;;;;;6291954;22;20022;-82
2022/03/31 00:37:11;;;;;;;33.35;21.67;;;;;;;;;;6319484;22;20011;-82
2022/03/31 00:39:37;;;;;;;34.35;20.33;;;;;;;;;;6319390;22;20002;-82
2022/03/31 00:42:05;;;;;;;31.48;20.02;;;;;;;;;;6318531;22;20467;-82
2022/03/31 00:44:31;;;;;;;32.47;19.88;;;;;;;;;;6318497;22;20324;-82
2022/03/31 00:46:57;;;;;;;29.83;19.75;;;;;;;;;;6318899;22;19995;-82
2022/03/31 00:49:24;;;;;;;31.90;20.00;;;;;;;;;;6319159;22;20029;-82
2022/03/31 00:51:52;;;;;;;33.25;19.85;;;;;;;;;;6319612;22;20451;-82
2022/03/31 00:54:19;;;;;;;30.40;19.13;;;;;;;;;;6317580;22;20018;-82
2022/03/31 00:56:46;;;;;;;29.58;20.10;;;;;;;;;;6319082;22;20450;-82
2022/03/31 00:59:12;;;;;;;32.20;21.73;;;;;;;;;;6318587;22;19996;-82
2022/03/31 01:01:39;;;;;;;29.17;18.92;;;;;;;;;;6292853;22;20046;-82
2022/03/31 01:04:05;;;;;;;32.67;20.42;;;;;;;;;;6319750;22;19995;-82
2022/03/31 01:06:31;;;;;;;31.45;20.05;;;;;;;;;;6321040;22;20390;-82
2022/03/31 01:08:57;;;;;;;35.45;20.13;;;;;;;;;;6321967;22;20107;-82
2022/03/31 01:11:23;;;;;;;32.95;19.67;;;;;;;;;;6321893;22;20618;-82
2022/03/31 01:13:50;;;;;;;30.02;19.33;;;;;;;;;;6320374;22;20031;-82
2022/03/31 01:16:16;;;;;;;30.98;19.65;;;;;;;;;;6294265;22;20030;-82
2022/03/31 01:18:42;;;;;;;28.88;19.40;;;;;;;;;;6321533;22;20187;-82
2022/03/31 01:21:09;;;;;;;31.33;19.70;;;;;;;;;;6322090;22;20011;-82
2022/03/31 01:23:36;;;;;;;31.83;19.63;;;;;;;;;;6321775;22;19995;-82
2022/03/31 01:26:02;;;;;;;32.30;19.75;;;;;;;;;;6321615;22;20343;-82
2022/03/31 01:28:28;;;;;;;34.55;21.98;;;;;;;;;;6294092;22;20003;-82
2022/03/31 01:30:55;;;;;;;34.42;20.38;;;;;;;;;;6321675;22;20003;-82
2022/03/31 01:33:21;;;;;;;32.67;20.83;;;;;;;;;;6321370;22;20010;-82
2022/03/31 01:35:47;;;;;;;33.88;20.13;;;;;;;;;;6293518;22;20003;-82
2022/03/31 01:38:13;;;;;;;32.63;19.80;;;;;;;;;;6320861;22;20605;-82
2022/03/31 01:40:39;;;;;;;30.15;19.75;;;;;;;;;;6321187;22;20030;-82
2022/03/31 01:43:07;;;;;;;32.65;20.90;;;;;;;;;;6321721;22;19995;-82
2022/03/31 01:45:33;;;;;;;31.15;19.92;;;;;;;;;;6320321;22;20007;-82
2022/03/31 01:48:00;;;;;;;33.55;21.83;;;;;;;;;;6321125;22;20086;-82
2022/03/31 01:50:26;;;;;;;31.67;19.17;;;;;;;;;;6320381;22;20003;-82
2022/03/31 01:52:52;;;;;;;34.92;21.10;;;;;;;;;;6320504;22;20023;-82
2022/03/31 01:55:18;;;;;;;31.58;20.50;;;;;;;;;;6320881;22;20025;-82
2022/03/31 01:57:44;;;;;;;35.92;22.35;;;;;;;;;;6320781;22;20093;-82
2022/03/31 02:00:10;;;;;;;33.85;20.90;;;;;;;;;;6320018;22;19995;-82
2022/03/31 02:02:36;;;;;;;33.50;21.00;;;;;;;;;;6293894;22;20462;-82
2022/03/31 02:05:02;;;;;;;33.63;20.40;;;;;;;;;;6320214;22;20003;-82
2022/03/31 02:07:28;;;;;;;32.25;19.70;;;;;;;;;;6320695;22;20036;-82
2022/03/31 02:09:54;;;;;;;39.13;21.25;;;;;;;;;;6320102;22;20000;-82
2022/03/31 02:12:21;;;;;;;34.47;21.90;;;;;;;;;;6321102;22;20032;-82
2022/03/31 02:14:47;;;;;;;36.05;22.52;;;;;;;;;;6320378;22;20008;-82
2022/03/31 02:17:13;;;;;;;38.30;21.55;;;;;;;;;;6292516;22;20010;-82
2022/03/31 02:19:39;;;;;;;35.67;20.58;;;;;;;;;;6292820;22;20004;-82
2022/03/31 02:22:07;;;;;;;36.80;22.00;;;;;;;;;;6320495;22;19991;-81
2022/03/31 02:24:35;;;;;;;34.35;21.83;;;;;;;;;;6319603;22;20015;-82
2022/03/31 02:27:01;;;;;;;34.25;22.05;;;;;;;;;;6320001;22;19995;-82
2022/03/31 02:29:28;;;;;;;37.22;22.30;;;;;;;;;;6320374;22;20006;-81
2022/03/31 02:31:54;;;;;;;36.13;21.35;;;;;;;;;;6293268;22;20030;-81
2022/03/31 02:34:20;;;;;;;35.13;22.25;;;;;;;;;;6321253;22;19995;-82
2022/03/31 02:36:46;;;;;;;38.50;23.23;;;;;;;;;;6293498;22;20003;-82
2022/03/31 02:39:12;;;;;;;38.97;22.35;;;;;;;;;;6319631;22;20001;-82
2022/03/31 02:41:39;;;;;;;36.40;22.42;;;;;;;;;;6319816;22;19999;-82
2022/03/31 02:44:05;;;;;;;37.30;22.70;;;;;;;;;;6319674;22;19999;-82
2022/03/31 02:46:31;;;;;;;38.60;22.50;;;;;;;;;;6319638;22;20036;-82
2022/03/31 02:48:58;;;;;;;38.08;22.75;;;;;;;;;;6319951;22;19999;-82
2022/03/31 02:51:24;;;;;;;38.75;23.15;;;;;;;;;;6320418;22;20018;-82
2022/03/31 02:56:35;;;;;;;35.88;23.77;;;;;;;;;;6317990;22;20030;-82
2022/03/31 02:59:01;;;;;;;39.35;24.45;;;;;;;;;;6291119;22;20031;-81
2022/03/31 03:01:27;;;;;;;41.63;24.77;;;;;;;;;;6317649;22;20035;-82
2022/03/31 03:03:59;;;;;;;38.00;25.85;;;;;;;;;;6291539;22;20012;-81
2022/03/31 03:06:25;;;;;;;40.88;24.50;;;;;;;;;;6318952;22;19999;-82
2022/03/31 03:08:51;;;;;;;36.33;23.13;;;;;;;;;;6318492;22;20074;-82
2022/03/31 03:11:18;;;;;;;39.88;24.80;;;;;;;;;;6319342;22;20003;-82
2022/03/31 03:13:47;;;;;;;43.22;25.75;;;;;;;;;;6318449;22;20003;-82
2022/03/31 03:16:13;;;;;;;42.65;24.90;;;;;;;;;;6321855;22;20014;-82
2022/03/31 03:18:40;;;;;;;42.00;26.95;;;;;;;;;;6327081;22;20014;-82
2022/03/31 03:21:07;;;;;;;40.83;24.50;;;;;;;;;;6320476;22;20022;-82
2022/03/31 03:23:33;;;;;;;39.45;25.10;;;;;;;;;;6318540;22;19991;-82
2022/03/31 03:26:01;;;;;;;39.20;24.88;;;;;;;;;;6318440;22;20091;-82
2022/03/31 03:28:27;;;;;;;41.05;25.98;;;;;;;;;;6291378;22;20403;-82
2022/03/31 03:30:53;;;;;;;40.67;25.17;;;;;;;;;;6316408;22;20007;-82
2022/03/31 03:33:19;;;;;;;41.35;26.08;;;;;;;;;;6317779;22;20034;-82
2022/03/31 03:35:45;;;;;;;40.60;24.17;;;;;;;;;;6317534;22;20026;-82
2022/03/31 03:38:11;;;;;;;40.40;25.42;;;;;;;;;;6318963;22;19995;-82
2022/03/31 03:40:37;;;;;;;42.55;24.95;;;;;;;;;;6317250;22;20002;-82
2022/03/31 03:43:04;;;;;;;48.25;27.10;;;;;;;;;;6317747;22;20049;-82
2022/03/31 03:45:30;;;;;;;42.38;25.77;;;;;;;;;;6316022;22;20049;-82
2022/03/31 03:47:58;;;;;;;40.00;25.85;;;;;;;;;;6317865;22;19999;-82
2022/03/31 03:50:25;;;;;;;43.53;26.48;;;;;;;;;;6317405;22;20029;-82
2022/03/31 03:52:51;;;;;;;40.55;26.92;;;;;;;;;;6316867;22;19999;-82
2022/03/31 03:55:17;;;;;;;44.30;24.92;;;;;;;;;;6317048;22;19999;-82
2022/03/31 03:57:43;;;;;;;42.33;26.02;;;;;;;;;;6297044;22;20074;-82
2022/03/31 04:00:10;;;;;;;44.33;26.45;;;;;;;;;;6323894;22;19999;-82
2022/03/31 04:02:36;;;;;;;41.72;26.10;;;;;;;;;;6271455;22;1108847;-82
2022/03/31 04:05:03;;;;;;;42.45;26.00;;;;;;;;;;6320315;22;20000;-82
2022/03/31 04:07:29;;;;;;;44.03;27.05;;;;;;;;;;6291641;22;20003;-82
2022/03/31 04:09:55;;;;;;;47.10;28.20;;;;;;;;;;6319065;22;19999;-82
2022/03/31 04:12:22;;;;;;;47.20;27.55;;;;;;;;;;6319873;22;20307;-80
2022/03/31 04:14:49;;;;;;;44.83;26.90;;;;;;;;;;6319852;22;19995;-80
2022/03/31 04:17:15;;;;;;;42.47;26.35;;;;;;;;;;6319713;22;20011;-80
2022/03/31 04:19:43;;;;;;;42.08;25.65;;;;;;;;;;6319534;22;19995;-81
2022/03/31 04:22:09;;;;;;;43.42;27.27;;;;;;;;;;6320071;22;20002;-81
2022/03/31 04:24:35;;;;;;;42.42;27.20;;;;;;;;;;6319607;22;19996;-80
2022/03/31 04:27:01;;;;;;;43.30;26.02;;;;;;;;;;6317996;22;19996;-80
2022/03/31 04:29:27;;;;;;;42.83;27.10;;;;;;;;;;6318659;22;19987;-80
2022/03/31 04:31:54;;;;;;;43.85;27.75;;;;;;;;;;6319001;22;20017;-81
2022/03/31 04:34:20;;;;;;;45.50;28.23;;;;;;;;;;6292154;22;20019;-80
2022/03/31 04:36:47;;;;;;;46.58;28.67;;;;;;;;;;6319511;22;20041;-80
2022/03/31 04:39:13;;;;;;;49.20;29.45;;;;;;;;;;6318615;22;20047;-80
2022/03/31 04:41:43;;;;;;;47.97;29.83;;;;;;;;;;6320466;22;19999;-82
2022/03/31 04:44:09;;;;;;;54.95;29.95;;;;;;;;;;6320960;22;20047;-82
2022/03/31 04:46:35;;;;;;;52.38;30.63;;;;;;;;;;6292671;22;20003;-79
2022/03/31 04:49:03;;;;;;;47.40;28.98;;;;;;;;;;6319979;22;20011;-79
2022/03/31 04:51:29;;;;;;;48.90;29.67;;;;;;;;;;6318119;22;20059;-79
2022/03/31 04:53:55;;;;;;;47.05;27.67;;;;;;;;;;6289589;22;20440;-79
2022/03/31 04:56:21;;;;;;;50.80;28.50;;;;;;;;;;6316556;22;20025;-79
2022/03/31 04:58:50;;;;;;;46.25;29.55;;;;;;;;;;6315528;22;20019;-79
2022/03/31 05:01:17;;;;;;;45.83;28.00;;;;;;;;;;6288864;22;20014;-79
2022/03/31 05:03:43;;;;;;;53.40;30.33;;;;;;;;;;6289082;22;20038;-79
2022/03/31 05:06:09;;;;;;;48.13;30.05;;;;;;;;;;6316876;22;20038;-79
2022/03/31 05:08:37;;;;;;;52.40;29.23;;;;;;;;;;6316976;22;20068;-79
2022/03/31 05:11:03;;;;;;;50.15;29.05;;;;;;;;;;6314753;22;20003;-79
2022/03/31 05:13:29;;;;;;;51.00;30.23;;;;;;;;;;6312239;22;20641;-80
2022/03/31 05:15:55;;;;;;;50.38;29.63;;;;;;;;;;6312444;22;19995;-80
2022/03/31 05:18:21;;;;;;;52.78;29.98;;;;;;;;;;6313169;22;20003;-81
2022/03/31 05:20:47;;;;;;;53.28;30.52;;;;;;;;;;6285740;22;20034;-80
2022/03/31 05:23:13;;;;;;;48.88;29.33;;;;;;;;;;6314557;22;19995;-80
2022/03/31 05:25:39;;;;;;;48.33;29.63;;;;;;;;;;6319781;22;19999;-80
2022/03/31 05:28:06;;;;;;;48.97;29.30;;;;;;;;;;6320485;22;20057;-79
2022/03/31 05:30:32;;;;;;;54.78;31.52;;;;;;;;;;6322257;22;20007;-80
2022/03/31 05:32:59;;;;;;;54.63;30.83;;;;;;;;;;6322908;22;20052;-80
2022/03/31 05:35:27;;;;;;;51.53;30.50;;;;;;;;;;6290973;22;19999;-79
2022/03/31 05:37:54;;;;;;;56.00;31.17;;;;;;;;;;6313249;22;20026;-80
2022/03/31 05:40:20;;;;;;;50.60;30.77;;;;;;;;;;6313760;22;20019;-80
2022/03/31 05:42:46;;;;;;;50.63;29.90;;;;;;;;;;6313760;22;19999;-80
2022/03/31 05:45:13;;;;;;;49.30;29.13;;;;;;;;;;6286012;22;20061;-80
2022/03/31 05:47:41;;;;;;;54.47;29.65;;;;;;;;;;6313370;22;20003;-80
2022/03/31 05:50:10;;;;;;;50.17;30.33;;;;;;;;;;6314281;22;20087;-80
2022/03/31 05:52:42;;;;;;;48.10;28.42;;;;;;;;;;6314654;22;20010;-80
2022/03/31 05:55:09;;;;;;;55.55;31.20;;;;;;;;;;6314641;22;20014;-80
2022/03/31 05:57:35;;;;;;;52.38;29.88;;;;;;;;;;6285886;22;20007;-80
2022/03/31 06:00:02;;;;;;;42.53;27.50;;;;;;;;;;6313368;22;19996;-79
2022/03/31 06:02:28;;;;;;;50.60;29.67;;;;;;;;;;6287632;22;20025;-82
2022/03/31 06:04:54;;;;;;;48.90;28.42;;;;;;;;;;6326848;22;19999;-80
2022/03/31 06:07:20;;;;;;;50.30;31.40;;;;;;;;;;6327804;22;19991;-77
2022/03/31 06:09:46;;;;;;;51.97;30.38;;;;;;;;;;6326767;22;19999;-78
2022/03/31 06:12:12;;;;;;;47.17;27.92;;;;;;;;;;6324944;22;20005;-79
2022/03/31 06:14:38;;;;;;;48.28;28.75;;;;;;;;;;6314746;22;20024;-79
2022/03/31 06:17:04;;;;;;;49.20;29.73;;;;;;;;;;6312864;22;20322;-79
2022/03/31 06:19:30;;;;;;;50.13;29.05;;;;;;;;;;6313651;22;20304;-79
2022/03/31 06:21:56;;;;;;;50.53;29.88;;;;;;;;;;6288020;22;20007;-80
2022/03/31 06:24:23;;;;;;;50.35;29.48;;;;;;;;;;6286460;22;20013;-80
2022/03/31 06:26:49;;;;;;;48.60;28.83;;;;;;;;;;6314129;22;19998;-79
2022/03/31 06:29:15;;;;;;;49.55;29.10;;;;;;;;;;6287341;22;19999;-80
2022/03/31 06:31:41;;;;;;;49.15;29.15;;;;;;;;;;6313838;22;20006;-80
2022/03/31 06:34:07;;;;;;;44.25;26.88;;;;;;;;;;6314288;22;19995;-81
2022/03/31 06:36:33;;;;;;;45.80;27.83;;;;;;;;;;6286683;22;20427;-81
2022/03/31 06:38:59;;;;;;;48.10;27.00;;;;;;;;;;6314450;22;19999;-81
2022/03/31 06:41:25;;;;;;;48.42;28.83;;;;;;;;;;6286291;22;20003;-80
2022/03/31 06:43:52;;;;;;;43.72;26.70;;;;;;;;;;6314434;22;19999;-80
2022/03/31 06:46:18;;;;;;;45.97;25.77;;;;;;;;;;6286831;22;20443;-81
2022/03/31 06:48:46;;;;;;;41.63;24.60;;;;;;;;;;6286181;22;20327;-81
2022/03/31 06:51:13;;;;;;;44.40;25.25;;;;;;;;;;6313360;22;20070;-82
2022/03/31 06:53:40;;;;;;;41.25;24.15;;;;;;;;;;6313866;22;20000;-82
2022/03/31 06:56:07;;;;;;;39.30;24.10;;;;;;;;;;6313938;22;20299;-79
2022/03/31 06:58:34;;;;;;;42.63;26.30;;;;;;;;;;6313901;22;19995;-79
2022/03/31 07:01:00;;;;;;;38.35;23.20;;;;;;;;;;6286172;22;20019;-80
2022/03/31 07:03:26;;;;;;;37.97;23.15;;;;;;;;;;6313515;22;19999;-79
2022/03/31 07:05:52;;;;;;;38.35;24.02;;;;;;;;;;6312743;22;20003;-80
2022/03/31 07:08:19;;;;;;;36.55;22.38;;;;;;;;;;6313165;22;20007;-80
2022/03/31 07:10:45;;;;;;;39.85;23.67;;;;;;;;;;6285780;22;20007;-80
2022/03/31 07:13:11;;;;;;;37.95;23.23;;;;;;;;;;6312992;22;20083;-76
2022/03/31 07:15:37;;;;;;;36.55;22.65;;;;;;;;;;6308297;22;19999;-79
2022/03/31 07:18:04;;;;;;;38.75;22.00;;;;;;;;;;6309704;22;20096;-80
2022/03/31 07:20:30;;;;;;;32.60;21.23;;;;;;;;;;6313039;22;20006;-82
2022/03/31 07:22:57;;;;;;;35.75;21.80;;;;;;;;;;6313396;22;20010;-82
2022/03/31 07:25:23;;;;;;;37.00;22.30;;;;;;;;;;6313252;22;20021;-83
2022/03/31 07:27:49;;;;;;;37.45;23.95;;;;;;;;;;6284753;22;20007;-81
2022/03/31 07:30:16;;;;;;;42.33;24.98;;;;;;;;;;6284740;22;20008;-82
2022/03/31 07:32:46;;;;;;;43.13;24.60;;;;;;;;;;6313182;22;20061;-82
2022/03/31 07:35:12;;;;;;;34.63;22.17;;;;;;;;;;6312451;22;20003;-82
2022/03/31 07:37:38;;;;;;;37.47;21.92;;;;;;;;;;6313120;22;20282;-82
2022/03/31 07:40:05;;;;;;;37.35;21.45;;;;;;;;;;6312634;22;20110;-82
2022/03/31 07:42:31;;;;;;;36.47;22.80;;;;;;;;;;6282481;22;20081;-80
2022/03/31 07:44:57;;;;;;;58.03;31.13;;;;;;;;;;6312244;22;20064;-81
2022/03/31 07:47:23;;;;;;;76.53;39.58;;;;;;;;;;6311549;22;20002;-82
2022/03/31 07:49:49;;;;;;;77.20;38.33;;;;;;;;;;6311144;22;20002;-82
2022/03/31 07:52:15;;;;;;;65.15;35.40;;;;;;;;;;6312161;22;19995;-82
2022/03/31 07:54:42;;;;;;;50.92;28.55;;;;;;;;;;6285099;22;20003;-81
2022/03/31 07:57:08;;;;;;;51.15;28.38;;;;;;;;;;6284503;22;19995;-82
2022/03/31 07:59:35;;;;;;;44.17;24.67;;;;;;;;;;6311673;22;20007;-81
2022/03/31 08:02:01;;;;;;;44.15;26.30;;;;;;;;;;6312074;22;20118;-81
2022/03/31 08:04:27;;;;;;;41.33;24.25;;;;;;;;;;6312353;22;19996;-82
2022/03/31 08:06:53;;;;;;;44.17;25.55;;;;;;;;;;6311932;22;20424;-82
2022/03/31 08:09:23;;;;;;;39.60;23.02;;;;;;;;;;6312358;22;20010;-81
2022/03/31 08:11:50;;;;;;;43.42;25.52;;;;;;;;;;6312441;22;20007;-81
2022/03/31 08:14:17;;;;;;;49.25;25.88;;;;;;;;;;6312816;22;20003;-81
2022/03/31 08:16:47;;;;;;;57.28;31.45;;;;;;;;;;6284026;22;20011;-81
2022/03/31 08:19:15;;;;;;;58.30;31.67;;;;;;;;;;6311226;22;19999;-82
2022/03/31 08:21:42;;;;;;;46.22;24.92;;;;;;;;;;6312756;22;19995;-81
2022/03/31 08:24:08;;;;;;;36.67;21.48;;;;;;;;;;6312666;22;20010;-81
2022/03/31 08:26:34;;;;;;;43.40;25.13;;;;;;;;;;6312552;22;19999;-82
2022/03/31 08:29:00;;;;;;;47.55;26.77;;;;;;;;;;6284848;22;20007;-81
2022/03/31 08:31:27;;;;;;;43.72;25.55;;;;;;;;;;6311544;22;19999;-82
2022/03/31 08:33:53;;;;;;;41.47;23.17;;;;;;;;;;6311503;22;20318;-81
2022/03/31 08:36:19;;;;;;;46.90;27.08;;;;;;;;;;6313784;22;19999;-82
2022/03/31 08:38:45;;;;;;;40.28;23.77;;;;;;;;;;6286787;22;20049;-82
2022/03/31 08:41:12;;;;;;;37.00;22.63;;;;;;;;;;6312497;22;20003;-82
2022/03/31 08:43:38;;;;;;;42.65;26.20;;;;;;;;;;6312335;22;20006;-82
2022/03/31 08:46:06;;;;;;;49.55;29.23;;;;;;;;;;6312665;22;20504;-82
2022/03/31 08:48:33;;;;;;;59.33;31.15;;;;;;;;;;6312168;22;19995;-81
2022/03/31 08:50:59;;;;;;;63.10;31.80;;;;;;;;;;6312520;22;20007;-82
2022/03/31 08:53:25;;;;;;;44.15;25.30;;;;;;;;;;6286155;22;20038;-80
2022/03/31 08:55:51;;;;;;;47.17;27.15;;;;;;;;;;6313613;22;20003;-82
2022/03/31 08:58:17;;;;;;;61.38;32.95;;;;;;;;;;6286492;22;20009;-82
2022/03/31 09:00:43;;;;;;;43.47;24.50;;;;;;;;;;6313593;22;19995;-82
2022/03/31 09:03:10;;;;;;;54.90;30.92;;;;;;;;;;6286859;22;20034;-81
2022/03/31 09:05:41;;;;;;;50.33;28.40;;;;;;;;;;6313615;22;20023;-81
2022/03/31 09:08:09;;;;;;;53.85;29.55;;;;;;;;;;6311467;22;20010;-81
2022/03/31 09:10:37;;;;;;;43.00;23.48;;;;;;;;;;6313340;22;20032;-82
2022/03/31 09:13:04;;;;;;;42.03;23.98;;;;;;;;;;6285578;22;20003;-81
2022/03/31 09:15:31;;;;;;;42.38;23.98;;;;;;;;;;6286397;22;20004;-81
2022/03/31 09:17:58;;;;;;;42.22;24.05;;;;;;;;;;6314897;22;20002;-81
2022/03/31 09:20:35;;;;;;;34.63;22.10;;;;;;;;;;6285234;22;20378;-81
2022/03/31 09:23:01;;;;;;;41.45;23.98;;;;;;;;;;6286602;22;20346;-82
2022/03/31 09:25:28;;;;;;;40.72;23.20;;;;;;;;;;6313409;22;20432;-82
2022/03/31 09:27:55;;;;;;;39.70;23.73;;;;;;;;;;6286395;22;20351;-81
2022/03/31 09:30:22;;;;;;;40.42;23.55;;;;;;;;;;6314403;22;20000;-82
2022/03/31 09:32:49;;;;;;;39.92;24.10;;;;;;;;;;6314004;22;20025;-81
2022/03/31 09:35:18;;;;;;;36.20;22.25;;;;;;;;;;6314353;22;20003;-82
2022/03/31 09:37:44;;;;;;;35.45;21.50;;;;;;;;;;6313473;22;20004;-81
2022/03/31 09:40:11;;;;;;;36.63;20.95;;;;;;;;;;6285827;22;20003;-82
2022/03/31 09:42:37;;;;;;;42.88;25.60;;;;;;;;;;6286431;22;20431;-81
2022/03/31 09:45:03;;;;;;;43.53;24.52;;;;;;;;;;6313634;22;19995;-81
2022/03/31 09:47:29;;;;;;;54.13;30.58;;;;;;;;;;6285928;22;20000;-81
2022/03/31 09:49:56;;;;;;;49.30;29.20;;;;;;;;;;6313087;22;20011;-82
2022/03/31 09:52:23;;;;;;;50.10;30.20;;;;;;;;;;6312005;22;19995;-82
2022/03/31 09:54:49;;;;;;;37.45;21.13;;;;;;;;;;6313197;22;20003;-81
2022/03/31 09:57:20;;;;;;;47.42;27.40;;;;;;;;;;6313110;22;19996;-81
2022/03/31 09:59:48;;;;;;;46.53;27.23;;;;;;;;;;6286129;22;20025;-81
2022/03/31 10:02:15;;;;;;;51.08;29.38;;;;;;;;;;6285794;22;20073;-81
2022/03/31 10:04:46;;;;;;;52.83;30.48;;;;;;;;;;6314271;22;20070;-81
2022/03/31 10:07:12;;;;;;;35.75;20.98;;;;;;;;;;6313082;22;20015;-81
2022/03/31 10:09:39;;;;;;;40.17;23.42;;;;;;;;;;6313150;22;20066;-82
2022/03/31 10:12:08;;;;;;;39.85;22.42;;;;;;;;;;6312973;22;19995;-81
2022/03/31 10:14:53;;;;;;;43.40;25.42;;;;;;;;;;6313889;22;20006;-82
2022/03/31 10:17:25;;;;;;;42.42;22.65;;;;;;;;;;6287242;22;20004;-80
2022/03/31 10:19:52;;;;;;;34.83;20.50;;;;;;;;;;6315689;22;20007;-81
2022/03/31 10:25:13;;;;;;;39.90;22.98;;;;;;;;;;6312538;22;20033;-81
2022/03/31 10:27:40;;;;;;;36.70;21.83;;;;;;;;;;6286307;22;19999;-82
2022/03/31 10:30:10;;;;;;;35.20;20.92;;;;;;;;;;6312807;22;20002;-82
2022/03/31 10:32:37;;;;;;;37.05;21.45;;;;;;;;;;6284936;22;20006;-82
2022/03/31 10:35:04;;;;;;;32.40;21.75;;;;;;;;;;6312361;22;19998;-82
2022/03/31 10:37:39;;;;;;;33.58;20.42;;;;;;;;;;6312909;22;19999;-82
2022/03/31 10:40:07;;;;;;;30.40;17.40;;;;;;;;;;6313947;22;20319;-82
2022/03/31 10:42:33;;;;;;;30.90;18.73;;;;;;;;;;6285426;22;20000;-82
2022/03/31 10:45:06;;;;;;;30.13;18.98;;;;;;;;;;6313325;22;20002;-82
2022/03/31 10:47:34;;;;;;;28.90;18.17;;;;;;;;;;6285155;22;19999;-82
2022/03/31 10:50:00;;;;;;;34.92;21.00;;;;;;;;;;6312444;22;20000;-82
2022/03/31 10:52:28;;;;;;;28.27;18.23;;;;;;;;;;6313045;22;20002;-81
2022/03/31 10:55:04;;;;;;;31.65;19.30;;;;;;;;;;6284893;22;20078;-81
2022/03/31 10:57:37;;;;;;;30.48;19.42;;;;;;;;;;6285127;22;20101;-82
2022/03/31 11:00:07;;;;;;;31.92;19.00;;;;;;;;;;6312953;22;20078;-81
2022/03/31 11:02:39;;;;;;;30.63;19.52;;;;;;;;;;6312670;22;20344;-82
2022/03/31 11:05:05;;;;;;;31.77;19.10;;;;;;;;;;6311988;22;20439;-82
2022/03/31 11:07:31;;;;;;;29.92;18.95;;;;;;;;;;6284558;22;20003;-81
2022/03/31 11:10:07;;;;;;;30.55;18.63;;;;;;;;;;6312629;22;20316;-82
2022/03/31 11:12:33;;;;;;;30.88;19.73;;;;;;;;;;6311999;22;19995;-82
2022/03/31 11:15:00;;;;;;;29.48;19.30;;;;;;;;;;6311919;22;20015;-83
2022/03/31 11:17:28;;;;;;;32.15;18.67;;;;;;;;;;6312060;22;19995;-82
2022/03/31 11:19:55;;;;;;;29.27;18.67;;;;;;;;;;6311360;22;20037;-82
2022/03/31 11:22:26;;;;;;;32.78;19.45;;;;;;;;;;6284998;22;20054;-81
2022/03/31 11:24:54;;;;;;;30.77;19.17;;;;;;;;;;6284944;22;20011;-82
2022/03/31 11:27:36;;;;;;;30.02;19.33;;;;;;;;;;6284919;22;20357;-82
2022/03/31 11:30:03;;;;;;;30.60;18.52;;;;;;;;;;6284511;22;20049;-82
2022/03/31 11:32:30;;;;;;;28.27;17.85;;;;;;;;;;6312239;22;19995;-82
2022/03/31 11:34:58;;;;;;;33.47;18.92;;;;;;;;;;6312845;22;20003;-82
2022/03/31 11:37:24;;;;;;;28.85;18.92;;;;;;;;;;6311515;22;20466;-81
2022/03/31 11:39:50;;;;;;;29.23;19.10;;;;;;;;;;6311313;22;20007;-82
2022/03/31 11:42:16;;;;;;;28.67;17.90;;;;;;;;;;6313066;22;20006;-81
2022/03/31 11:44:43;;;;;;;32.00;21.00;;;;;;;;;;6313073;22;20002;-82
2022/03/31 11:47:12;;;;;;;31.85;21.05;;;;;;;;;;6284281;22;20347;-83
2022/03/31 11:49:40;;;;;;;32.08;19.83;;;;;;;;;;6311034;22;20010;-80
2022/03/31 11:52:06;;;;;;;32.30;20.25;;;;;;;;;;6285985;22;20011;-81
2022/03/31 11:54:32;;;;;;;32.85;20.80;;;;;;;;;;6314181;22;20029;-81
2022/03/31 11:57:06;;;;;;;32.15;19.95;;;;;;;;;;6288823;22;20108;-82
2022/03/31 11:59:34;;;;;;;34.88;21.25;;;;;;;;;;6312101;22;20026;-82
2022/03/31 12:02:00;;;;;;;38.33;21.50;;;;;;;;;;6313455;22;20015;-82
2022/03/31 12:04:27;;;;;;;33.85;21.85;;;;;;;;;;6284750;22;20030;-82
2022/03/31 12:06:54;;;;;;;33.90;21.63;;;;;;;;;;6311844;22;20003;-82
2022/03/31 12:09:23;;;;;;;36.13;22.00;;;;;;;;;;6312442;22;20010;-82
2022/03/31 12:11:49;;;;;;;32.22;20.77;;;;;;;;;;6313546;22;19999;-82
2022/03/31 12:14:15;;;;;;;31.27;20.58;;;;;;;;;;6310576;22;19999;-81
2022/03/31 12:16:42;;;;;;;34.25;21.25;;;;;;;;;;6311537;22;19999;-81
2022/03/31 12:19:09;;;;;;;33.70;21.75;;;;;;;;;;6311627;22;19999;-83
2022/03/31 12:21:44;;;;;;;34.15;22.00;;;;;;;;;;6312800;22;19995;-83
2022/03/31 12:24:10;;;;;;;35.67;22.80;;;;;;;;;;6285744;22;20007;-82
2022/03/31 12:26:36;;;;;;;37.75;22.05;;;;;;;;;;6285899;22;20010;-82
2022/03/31 12:29:02;;;;;;;35.15;22.35;;;;;;;;;;6311999;22;20019;-82
2022/03/31 12:31:31;;;;;;;37.72;22.92;;;;;;;;;;6311453;22;19999;-82
2022/03/31 12:33:57;;;;;;;38.38;23.65;;;;;;;;;;6284343;22;20003;-83
2022/03/31 12:36:27;;;;;;;34.65;22.20;;;;;;;;;;6311369;22;20027;-82
2022/03/31 12:38:55;;;;;;;35.15;21.52;;;;;;;;;;6284389;22;19995;-82
2022/03/31 12:41:21;;;;;;;34.90;22.77;;;;;;;;;;6311105;22;20339;-83
2022/03/31 12:43:58;;;;;;;37.83;23.77;;;;;;;;;;6311031;22;19995;-84
2022/03/31 12:46:28;;;;;;;34.92;21.75;;;;;;;;;;6284208;22;20080;-84
2022/03/31 12:48:56;;;;;;;35.90;22.52;;;;;;;;;;6283538;22;20429;-83
2022/03/31 12:51:23;;;;;;;41.20;23.33;;;;;;;;;;6283533;22;20070;-82
2022/03/31 12:53:49;;;;;;;36.88;22.95;;;;;;;;;;6310914;22;20011;-84
2022/03/31 12:56:21;;;;;;;35.92;23.55;;;;;;;;;;6310677;22;20006;-83
2022/03/31 12:58:47;;;;;;;38.90;23.65;;;;;;;;;;6283831;22;20003;-83
2022/03/31 13:01:15;;;;;;;38.97;21.13;;;;;;;;;;6312522;22;20011;-83
2022/03/31 13:03:42;;;;;;;40.38;23.52;;;;;;;;;;6313933;22;20321;-83
2022/03/31 13:06:14;;;;;;;39.22;22.60;;;;;;;;;;6313544;22;20368;-83
2022/03/31 13:08:40;;;;;;;35.72;21.85;;;;;;;;;;6286630;22;20367;-83
2022/03/31 13:11:05;;;;;;;38.25;22.25;;;;;;;;;;6313933;22;20070;-84
2022/03/31 13:13:31;;;;;;;36.30;21.65;;;;;;;;;;6286086;22;20291;-83
2022/03/31 13:15:58;;;;;;;35.92;21.23;;;;;;;;;;6311992;22;20312;-84
2022/03/31 13:18:24;;;;;;;40.70;23.95;;;;;;;;;;6310132;22;19995;-82
2022/03/31 13:20:50;;;;;;;36.78;21.33;;;;;;;;;;6285213;22;20003;-82
2022/03/31 13:23:16;;;;;;;37.17;22.35;;;;;;;;;;6285426;22;20068;-84
2022/03/31 13:25:44;;;;;;;35.60;20.52;;;;;;;;;;6286000;22;20003;-83
2022/03/31 13:28:10;;;;;;;37.25;23.60;;;;;;;;;;6313419;22;20078;-85
2022/03/31 13:30:36;;;;;;;34.63;20.52;;;;;;;;;;6314491;22;20006;-84
2022/03/31 13:33:02;;;;;;;36.53;22.20;;;;;;;;;;6289471;22;20026;-84
2022/03/31 13:35:28;;;;;;;40.10;22.48;;;;;;;;;;6293715;22;20007;-84
2022/03/31 13:37:55;;;;;;;36.53;22.52;;;;;;;;;;6322003;22;19999;-84
2022/03/31 13:40:21;;;;;;;33.92;21.33;;;;;;;;;;6324068;22;20015;-84
2022/03/31 13:42:47;;;;;;;35.13;20.48;;;;;;;;;;6324396;22;20021;-85
2022/03/31 13:45:13;;;;;;;32.65;20.80;;;;;;;;;;6325194;22;20023;-83
2022/03/31 13:47:42;;;;;;;35.60;21.60;;;;;;;;;;6316559;22;20003;-84
2022/03/31 13:50:08;;;;;;;36.33;22.42;;;;;;;;;;6288574;22;20052;-84
2022/03/31 13:52:34;;;;;;;36.00;21.48;;;;;;;;;;6314871;22;20003;-84
2022/03/31 13:55:00;;;;;;;36.05;23.17;;;;;;;;;;6314293;22;20018;-83
2022/03/31 14:02:56;;;;;;;35.25;22.50;;;;;;;;;;6315838;22;20045;-83
2022/03/31 14:05:23;;;;;;;34.78;21.00;;;;;;;;;;6288240;22;20032;-85
2022/03/31 14:07:50;;;;;;;35.92;22.52;;;;;;;;;;6289001;22;20383;-83
2022/03/31 14:10:16;;;;;;;36.33;22.40;;;;;;;;;;6286859;22;20086;-84
2022/03/31 14:12:42;;;;;;;37.20;23.83;;;;;;;;;;6293788;22;20011;-83
2022/03/31 14:15:09;;;;;;;34.72;21.92;;;;;;;;;;6295990;22;20424;-84
2022/03/31 14:17:35;;;;;;;38.50;22.40;;;;;;;;;;6322766;22;20075;-84
2022/03/31 14:20:01;;;;;;;39.25;23.25;;;;;;;;;;6295526;22;20061;-83
2022/03/31 14:22:27;;;;;;;36.08;22.08;;;;;;;;;;6293628;22;20321;-84
2022/03/31 14:24:53;;;;;;;36.92;21.52;;;;;;;;;;6316390;22;19999;-84